Time;durP1;ratioP1;P1;durP2;ratioP2;P2;SDS_P1;SDS_P2;PMS_P1;PMS_P2;Temp;Humidity;BMP_temperature;BMP_pressure;BME280_temperature;BME280_humidity;BME280_pressure;Samples;Min_cycle;Max_cycle;Signal;HPM_P1;HPM_P2
2022/11/23 00:00:56;;;;;;;;;;;6.60;97.50;;;;;;5075305;22;19971;-59
2022/11/23 00:03:22;;;;;;;;;;;6.60;97.50;;;;;;5051636;28;19952;-58
2022/11/23 00:05:50;;;;;;;;;;;6.60;97.30;;;;;;5052921;28;19963;-58
2022/11/23 00:08:16;;;;;;;;;;;6.70;96.90;;;;;;5052641;28;19909;-58
2022/11/23 00:10:44;;;;;;;;;;;6.60;96.90;;;;;;5052715;28;20430;-57
2022/11/23 00:13:10;;;;;;;;;;;6.60;97.00;;;;;;5052672;28;20403;-58
2022/11/23 00:15:39;;;;;;;;;;;6.60;96.90;;;;;;5051278;28;19909;-58
2022/11/23 00:18:05;;;;;;;;;;;6.50;96.80;;;;;;5052706;28;20427;-57
2022/11/23 00:20:30;;;;;;;;;;;6.40;96.90;;;;;;5051242;28;19916;-59
2022/11/23 00:22:56;;;;;;;;;;;6.30;97.20;;;;;;5052966;28;19932;-57
2022/11/23 00:25:22;;;;;;;;;;;6.20;97.40;;;;;;5052482;28;19913;-59
2022/11/23 00:27:48;;;;;;;;;;;;;;;;;;5052278;28;19963;-58
2022/11/23 00:30:13;;;;;;;;;;;6.30;97.30;;;;;;5051740;28;19917;-58
2022/11/23 00:32:39;;;;;;;;;;;6.20;97.80;;;;;;5052333;28;20283;-58
2022/11/23 00:35:05;;;;;;;;;;;6.30;97.60;;;;;;5048832;28;19910;-59
2022/11/23 00:37:30;;;;;;;;;;;6.30;97.30;;;;;;5032460;28;19913;-58
2022/11/23 00:39:59;;;;;;;;;;;6.30;96.90;;;;;;5050366;28;19909;-58
2022/11/23 00:42:24;;;;;;;;;;;6.30;96.70;;;;;;5051835;28;19916;-55
2022/11/23 00:44:50;;;;;;;;;;;6.20;96.90;;;;;;5035246;28;20035;-59
2022/11/23 00:47:16;;;;;;;;;;;6.20;97.20;;;;;;5032357;28;19967;-58
2022/11/23 00:49:41;;;;;;;;;;;6.20;97.10;;;;;;5033427;28;19909;-58
2022/11/23 00:52:07;;;;;;;;;;;6.20;97.10;;;;;;5034690;28;19920;-58
2022/11/23 00:54:33;;;;;;;;;;;6.30;97.00;;;;;;5032117;28;20051;-59
2022/11/23 00:56:58;;;;;;;;;;;6.30;96.90;;;;;;5032383;28;19924;-58
2022/11/23 00:59:28;;;;;;;;;;;6.30;96.70;;;;;;5049017;28;19912;-58
2022/11/23 01:01:54;;;;;;;;;;;6.30;96.60;;;;;;5036523;28;19921;-58
2022/11/23 01:04:19;;;;;;;;;;;6.30;96.50;;;;;;5032129;28;19917;-57
2022/11/23 01:06:45;;;;;;;;;;;6.30;96.50;;;;;;5051672;28;20404;-58
2022/11/23 01:09:13;;;;;;;;;;;6.30;96.50;;;;;;5051427;28;19913;-59
2022/11/23 01:11:41;;;;;;;;;;;6.30;96.50;;;;;;5038778;28;19917;-58
2022/11/23 01:14:07;;;;;;;;;;;6.30;96.40;;;;;;5032958;28;19913;-59
2022/11/23 01:16:34;;;;;;;;;;;6.30;96.40;;;;;;5031993;28;19913;-59
2022/11/23 01:22:03;;;;;;;;;;;6.30;96.30;;;;;;5030765;28;20004;-57
2022/11/23 01:24:28;;;;;;;;;;;5.00;95.80;;;;;;5031902;28;19921;-59
2022/11/23 01:26:54;;;;;;;;;;;6.10;96.50;;;;;;5032605;28;19913;-58
2022/11/23 01:29:20;;;;;;;;;;;6.10;96.60;;;;;;5043620;28;19913;-58
2022/11/23 01:31:46;;;;;;;;;;;6.00;96.50;;;;;;5034224;28;19913;-58
2022/11/23 01:34:13;;;;;;;;;;;6.00;96.60;;;;;;5036772;28;19944;-58
2022/11/23 01:36:39;;;;;;;;;;;6.00;96.50;;;;;;5054068;28;19952;-58
2022/11/23 01:39:08;;;;;;;;;;;6.00;96.40;;;;;;5037656;28;20342;-57
2022/11/23 01:41:35;;;;;;;;;;;6.00;96.50;;;;;;5035623;28;19917;-58
2022/11/23 01:44:21;;;;;;;;;;;6.00;96.30;;;;;;5043289;28;19913;-58
2022/11/23 01:46:47;;;;;;;;;;;6.00;96.30;;;;;;5037196;28;19909;-56
2022/11/23 01:49:12;;;;;;;;;;;6.00;96.30;;;;;;5040109;28;19919;-57
2022/11/23 01:51:40;;;;;;;;;;;6.00;96.10;;;;;;5055504;28;19916;-58
2022/11/23 01:54:27;;;;;;;;;;;5.90;95.90;;;;;;5055510;28;20390;-57
2022/11/23 01:56:54;;;;;;;;;;;5.80;96.30;;;;;;5055412;28;20388;-59
2022/11/23 01:59:20;;;;;;;;;;;5.70;96.40;;;;;;5054929;28;19909;-59
2022/11/23 02:01:46;;;;;;;;;;;5.60;96.60;;;;;;5047096;28;19924;-56
2022/11/23 02:04:18;;;;;;;;;;;5.70;96.70;;;;;;5035163;28;20372;-59
2022/11/23 02:06:51;;;;;;;;;;;5.60;97.00;;;;;;5035243;28;19931;-59
2022/11/23 02:09:16;;;;;;;;;;;5.50;98.30;;;;;;5034918;28;19916;-59
2022/11/23 02:11:42;;;;;;;;;;;5.60;98.30;;;;;;5035172;28;19995;-57
2022/11/23 02:14:08;;;;;;;;;;;5.70;98.00;;;;;;5034973;28;19928;-59
2022/11/23 02:16:34;;;;;;;;;;;5.80;97.60;;;;;;5035077;28;20408;-58
2022/11/23 02:18:59;;;;;;;;;;;5.70;97.40;;;;;;5034780;28;19909;-59
2022/11/23 02:21:25;;;;;;;;;;;5.70;97.40;;;;;;5034796;28;19913;-57
2022/11/23 02:24:29;;;;;;;;;;;5.70;97.20;;;;;;5034977;28;20388;-58
2022/11/23 02:26:57;;;;;;;;;;;5.70;97.10;;;;;;4954221;29;20315;-58
2022/11/23 02:29:23;;;;;;;;;;;5.70;97.60;;;;;;4954220;29;19917;-57
2022/11/23 02:31:50;;;;;;;;;;;5.70;97.70;;;;;;4993029;28;19935;-56
2022/11/23 02:34:16;;;;;;;;;;;5.80;97.70;;;;;;5034660;28;19916;-58
2022/11/23 02:36:43;;;;;;;;;;;5.80;97.50;;;;;;5034548;28;19909;-57
2022/11/23 02:39:28;;;;;;;;;;;5.80;97.30;;;;;;5049307;28;19909;-58
2022/11/23 02:41:59;;;;;;;;;;;5.90;97.10;;;;;;5053867;28;20369;-57
2022/11/23 02:44:32;;;;;;;;;;;5.90;96.80;;;;;;5053586;28;19913;-57
2022/11/23 02:46:58;;;;;;;;;;;5.80;96.70;;;;;;5041542;28;19913;-59
2022/11/23 02:49:24;;;;;;;;;;;5.80;96.80;;;;;;5053389;28;19916;-57
2022/11/23 02:51:50;;;;;;;;;;;5.80;96.70;;;;;;5045259;28;20412;-57
2022/11/23 02:54:15;;;;;;;;;;;5.70;96.50;;;;;;5034397;28;19955;-57
2022/11/23 02:56:41;;;;;;;;;;;5.70;96.50;;;;;;5034341;28;20377;-57
2022/11/23 02:59:07;;;;;;;;;;;5.60;96.40;;;;;;5034039;28;19909;-58
2022/11/23 03:01:33;;;;;;;;;;;5.50;96.10;;;;;;5034053;28;19917;-58
2022/11/23 03:03:58;;;;;;;;;;;5.40;96.30;;;;;;5042630;28;19966;-58
2022/11/23 03:06:24;;;;;;;;;;;5.40;96.40;;;;;;5052916;28;19913;-58
2022/11/23 03:08:49;;;;;;;;;;;5.50;96.40;;;;;;5053235;28;20363;-58
2022/11/23 03:11:18;;;;;;;;;;;5.50;96.40;;;;;;5053945;28;19909;-57
2022/11/23 03:13:43;;;;;;;;;;;5.40;96.20;;;;;;5054037;28;20308;-59
2022/11/23 03:16:09;;;;;;;;;;;5.40;96.10;;;;;;5054126;28;20000;-59
2022/11/23 03:18:35;;;;;;;;;;;5.40;96.00;;;;;;5052578;28;19913;-58
2022/11/23 03:21:02;;;;;;;;;;;5.30;95.80;;;;;;5053765;28;20392;-59
2022/11/23 03:23:28;;;;;;;;;;;5.30;96.10;;;;;;5053610;28;19909;-59
2022/11/23 03:25:54;;;;;;;;;;;5.20;95.80;;;;;;5053614;28;19908;-59
2022/11/23 03:28:19;;;;;;;;;;;5.10;95.90;;;;;;5053404;28;20169;-59
2022/11/23 03:30:48;;;;;;;;;;;5.00;96.20;;;;;;5053407;28;19936;-59
2022/11/23 03:33:14;;;;;;;;;;;5.00;96.40;;;;;;5052222;28;19916;-58
2022/11/23 03:35:39;;;;;;;;;;;5.00;96.20;;;;;;5053496;28;19912;-59
2022/11/23 03:38:05;;;;;;;;;;;5.00;96.10;;;;;;5053410;28;19915;-59
2022/11/23 03:40:31;;;;;;;;;;;5.10;96.00;;;;;;5044204;28;19968;-59
2022/11/23 03:42:56;;;;;;;;;;;5.00;96.00;;;;;;5033115;28;20317;-59
2022/11/23 03:45:22;;;;;;;;;;;5.00;96.10;;;;;;5033213;28;19913;-59
2022/11/23 03:47:49;;;;;;;;;;;5.00;95.90;;;;;;5033189;28;19912;-58
2022/11/23 03:50:14;;;;;;;;;;;4.90;95.90;;;;;;5032632;28;19909;-59
2022/11/23 03:52:40;;;;;;;;;;;4.90;96.30;;;;;;5051267;28;19923;-59
2022/11/23 03:55:06;;;;;;;;;;;5.00;96.30;;;;;;5039604;28;19936;-59
2022/11/23 03:57:34;;;;;;;;;;;5.00;96.00;;;;;;5053028;28;20003;-59
2022/11/23 04:00:00;;;;;;;;;;;4.90;96.20;;;;;;5051527;28;19920;-58
2022/11/23 04:02:25;;;;;;;;;;;4.90;96.40;;;;;;5035828;28;20239;-59
2022/11/23 04:04:51;;;;;;;;;;;4.90;96.30;;;;;;5050055;28;20007;-57
2022/11/23 04:07:16;;;;;;;;;;;4.90;96.10;;;;;;5052277;28;19933;-58
2022/11/23 04:09:42;;;;;;;;;;;4.90;95.90;;;;;;5052554;28;19916;-58
2022/11/23 04:12:08;;;;;;;;;;;4.90;95.90;;;;;;5046857;28;19913;-58
2022/11/23 04:14:37;;;;;;;;;;;4.90;95.80;;;;;;5040102;28;19912;-59
2022/11/23 04:17:03;;;;;;;;;;;4.80;95.80;;;;;;5052657;28;19951;-59
2022/11/23 04:19:28;;;;;;;;;;;4.90;95.90;;;;;;5037053;28;19909;-59
2022/11/23 04:21:54;;;;;;;;;;;4.80;95.90;;;;;;5043350;28;19921;-58
2022/11/23 04:24:20;;;;;;;;;;;4.80;95.80;;;;;;5051774;28;19920;-59
2022/11/23 04:26:45;;;;;;;;;;;4.80;95.80;;;;;;5052194;28;20285;-59
2022/11/23 04:29:11;;;;;;;;;;;4.80;95.90;;;;;;5044500;28;19909;-59
2022/11/23 04:31:37;;;;;;;;;;;4.70;95.70;;;;;;5032464;28;19914;-57
2022/11/23 04:34:02;;;;;;;;;;;4.80;95.90;;;;;;5047623;28;19910;-59
2022/11/23 04:36:28;;;;;;;;;;;4.80;96.00;;;;;;5049343;28;19921;-59
2022/11/23 04:38:54;;;;;;;;;;;4.80;95.90;;;;;;5042437;28;20003;-59
2022/11/23 04:41:19;;;;;;;;;;;4.70;95.80;;;;;;5033739;28;19913;-59
2022/11/23 04:43:54;;;;;;;;;;;4.70;95.50;;;;;;5032608;28;20000;-59
2022/11/23 04:46:20;;;;;;;;;;;4.50;95.70;;;;;;5038430;28;20027;-57
2022/11/23 04:48:46;;;;;;;;;;;4.30;95.70;;;;;;5032106;28;19985;-57
2022/11/23 04:51:11;;;;;;;;;;;4.30;95.70;;;;;;5032131;28;19913;-58
2022/11/23 04:53:37;;;;;;;;;;;4.20;96.10;;;;;;5042956;28;19950;-49
2022/11/23 04:56:06;;;;;;;;;;;4.20;95.80;;;;;;5040954;28;20301;-59
2022/11/23 04:58:31;;;;;;;;;;;4.10;95.50;;;;;;5032245;28;19909;-58
2022/11/23 05:00:58;;;;;;;;;;;4.00;96.00;;;;;;5031399;28;20285;-59
2022/11/23 05:03:24;;;;;;;;;;;4.00;95.90;;;;;;5032045;28;19914;-59
2022/11/23 05:05:50;;;;;;;;;;;3.90;95.80;;;;;;5031422;28;19910;-59
2022/11/23 05:08:15;;;;;;;;;;;3.90;96.40;;;;;;5031842;28;19917;-58
2022/11/23 05:10:41;;;;;;;;;;;4.00;96.60;;;;;;5030639;28;19909;-57
2022/11/23 05:13:06;;;;;;;;;;;4.00;96.50;;;;;;5031990;28;20446;-58
2022/11/23 05:15:32;;;;;;;;;;;4.10;96.20;;;;;;5032181;28;19909;-59
2022/11/23 05:18:02;;;;;;;;;;;4.10;96.00;;;;;;5032010;28;19909;-59
2022/11/23 05:20:29;;;;;;;;;;;4.10;95.90;;;;;;5031754;28;19917;-57
2022/11/23 05:22:54;;;;;;;;;;;4.10;95.70;;;;;;5030571;28;19909;-58
2022/11/23 05:25:20;;;;;;;;;;;4.10;95.70;;;;;;5031850;28;20294;-58
2022/11/23 05:27:46;;;;;;;;;;;4.10;95.60;;;;;;5031850;28;19920;-57
2022/11/23 05:30:11;;;;;;;;;;;4.10;95.60;;;;;;5030541;28;20389;-58
2022/11/23 05:32:37;;;;;;;;;;;4.10;95.60;;;;;;5031925;28;19909;-58
2022/11/23 05:35:03;;;;;;;;;;;4.00;95.50;;;;;;5032182;28;19955;-56
2022/11/23 05:37:28;;;;;;;;;;;4.00;95.70;;;;;;5031792;28;19944;-58
2022/11/23 05:39:54;;;;;;;;;;;4.00;95.70;;;;;;5031548;28;20012;-58
2022/11/23 05:42:20;;;;;;;;;;;3.90;95.40;;;;;;5032259;28;19920;-58
2022/11/23 05:44:45;;;;;;;;;;;3.80;95.70;;;;;;5031855;28;19936;-57
2022/11/23 05:47:11;;;;;;;;;;;3.80;95.70;;;;;;5031855;28;19914;-57
2022/11/23 05:49:37;;;;;;;;;;;3.80;95.90;;;;;;5031495;28;19909;-58
2022/11/23 05:52:02;;;;;;;;;;;3.70;95.80;;;;;;5031573;28;19992;-61
2022/11/23 05:54:28;;;;;;;;;;;3.60;96.00;;;;;;5031626;28;20259;-58
2022/11/23 05:56:54;;;;;;;;;;;3.60;95.00;;;;;;5031609;28;19916;-56
2022/11/23 05:59:19;;;;;;;;;;;3.40;96.00;;;;;;5031975;28;19909;-56
2022/11/23 06:01:45;;;;;;;;;;;3.30;95.60;;;;;;5031469;28;19917;-60
2022/11/23 06:04:12;;;;;;;;;;;3.30;96.70;;;;;;5031628;28;20297;-58
2022/11/23 06:06:37;;;;;;;;;;;3.30;96.50;;;;;;5031546;28;19910;-57
2022/11/23 06:09:03;;;;;;;;;;;3.30;96.60;;;;;;5030031;28;19910;-55
2022/11/23 06:11:30;;;;;;;;;;;3.40;96.40;;;;;;5030249;28;20531;-58
2022/11/23 06:13:55;;;;;;;;;;;3.40;96.50;;;;;;5031460;28;19909;-58
2022/11/23 06:16:21;;;;;;;;;;;3.40;96.20;;;;;;5031381;28;19963;-55
2022/11/23 06:18:47;;;;;;;;;;;3.30;96.00;;;;;;5034798;28;19916;-56
2022/11/23 06:21:15;;;;;;;;;;;3.30;96.30;;;;;;5034728;28;20274;-56
2022/11/23 06:23:40;;;;;;;;;;;3.10;95.40;;;;;;5034903;28;20295;-58
2022/11/23 06:26:06;;;;;;;;;;;3.00;95.70;;;;;;5033542;28;20012;-57
2022/11/23 06:28:34;;;;;;;;;;;3.00;96.50;;;;;;5034801;28;19909;-52
2022/11/23 06:31:04;;;;;;;;;;;3.00;96.20;;;;;;5034842;28;19909;-58
2022/11/23 06:33:29;;;;;;;;;;;3.00;96.30;;;;;;5034867;28;19909;-55
2022/11/23 06:35:56;;;;;;;;;;;2.80;96.00;;;;;;5033321;28;19932;-56
2022/11/23 06:38:22;;;;;;;;;;;2.70;96.90;;;;;;5034430;28;19909;-55
2022/11/23 06:40:47;;;;;;;;;;;2.70;97.30;;;;;;5034730;28;19936;-56
2022/11/23 06:43:13;;;;;;;;;;;2.70;96.80;;;;;;5034798;28;19910;-57
2022/11/23 06:45:38;;;;;;;;;;;2.70;97.20;;;;;;5034656;28;20425;-55
2022/11/23 06:48:04;;;;;;;;;;;2.80;97.10;;;;;;5034502;28;19909;-61
2022/11/23 06:50:30;;;;;;;;;;;2.80;97.10;;;;;;5034202;28;19920;-58
2022/11/23 06:52:56;;;;;;;;;;;2.90;96.50;;;;;;5034277;28;19909;-57
2022/11/23 06:55:22;;;;;;;;;;;2.80;97.30;;;;;;5034375;28;20366;-58
2022/11/23 06:57:51;;;;;;;;;;;2.80;97.80;;;;;;5034331;28;19915;-58
2022/11/23 07:00:17;;;;;;;;;;;2.80;97.60;;;;;;5033883;28;19960;-58
2022/11/23 07:02:43;;;;;;;;;;;2.70;97.30;;;;;;5034236;28;20298;-55
2022/11/23 07:05:09;;;;;;;;;;;2.60;97.40;;;;;;5034096;28;19915;-57
2022/11/23 07:10:19;;;;;;;;;;;;;;;;;;5033276;28;19916;-53
2022/11/23 07:12:45;;;;;;;;;;;;;;;;;;5033210;28;19999;-56
2022/11/23 07:15:14;;;;;;;;;;;;;;;;;;5032609;28;20429;-57
2022/11/23 07:17:40;;;;;;;;;;;;;;;;;;5033964;28;19909;-57
2022/11/23 07:20:09;;;;;;;;;;;;;;;;;;5033608;28;19909;-57
2022/11/23 07:22:41;;;;;;;;;;;;;;;;;;5033856;28;20362;-58
2022/11/23 07:25:07;;;;;;;;;;;;;;;;;;5033869;28;19909;-54
2022/11/23 07:27:33;;;;;;;;;;;;;;;;;;5033449;28;20440;-58
2022/11/23 07:30:02;;;;;;;;;;;;;;;;;;5033043;28;19916;-58
2022/11/23 07:32:28;;;;;;;;;;;;;;;;;;5033753;28;19949;-58
2022/11/23 07:34:55;;;;;;;;;;;;;;;;;;5032647;28;19909;-57
2022/11/23 07:37:20;;;;;;;;;;;;;;;;;;5033650;28;19957;-56
2022/11/23 07:39:51;;;;;;;;;;;;;;;;;;5033218;28;20373;-59
2022/11/23 07:42:22;;;;;;;;;;;;;;;;;;5032907;28;20196;-58
2022/11/23 07:44:48;;;;;;;;;;;;;;;;;;5033366;28;20304;-57
2022/11/23 07:47:14;;;;;;;;;;;;;;;;;;5032850;28;20008;-57
2022/11/23 07:49:40;;;;;;;;;;;;;;;;;;5032959;28;19999;-58
2022/11/23 07:52:06;;;;;;;;;;;;;;;;;;5033311;28;20374;-58
2022/11/23 07:54:32;;;;;;;;;;;;;;;;;;5033522;28;19955;-58
2022/11/23 07:56:58;;;;;;;;;;;;;;;;;;5033210;28;20392;-57
2022/11/23 07:59:24;;;;;;;;;;;2.50;97.70;;;;;;5032901;28;19909;-56
2022/11/23 08:01:50;;;;;;;;;;;3.20;97.00;;;;;;5032914;28;19924;-55
2022/11/23 08:04:15;;;;;;;;;;;3.10;97.10;;;;;;5033235;28;19909;-58
2022/11/23 08:06:41;;;;;;;;;;;3.30;97.50;;;;;;5031773;28;19909;-57
2022/11/23 08:09:06;;;;;;;;;;;3.40;97.50;;;;;;5032674;28;19909;-57
2022/11/23 08:11:32;;;;;;;;;;;3.40;96.90;;;;;;5031792;28;19909;-60
2022/11/23 08:14:00;;;;;;;;;;;3.50;97.40;;;;;;5033103;28;20370;-60
2022/11/23 08:16:26;;;;;;;;;;;3.60;97.30;;;;;;5032702;28;19915;-60
2022/11/23 08:18:52;;;;;;;;;;;3.70;97.40;;;;;;5032644;28;19909;-59
2022/11/23 08:21:17;;;;;;;;;;;3.80;97.30;;;;;;5032727;28;20051;-60
2022/11/23 08:23:43;;;;;;;;;;;4.00;97.30;;;;;;5032745;28;19948;-60
2022/11/23 08:26:08;;;;;;;;;;;4.10;97.20;;;;;;5032679;28;19910;-60
2022/11/23 08:28:34;;;;;;;;;;;4.20;97.40;;;;;;5031285;28;19909;-60
2022/11/23 08:31:04;;;;;;;;;;;4.30;97.30;;;;;;5032421;28;19949;-60
2022/11/23 08:33:30;;;;;;;;;;;4.40;97.30;;;;;;5031605;28;19909;-60
2022/11/23 08:35:55;;;;;;;;;;;4.50;97.40;;;;;;5032581;28;20284;-58
2022/11/23 08:38:21;;;;;;;;;;;4.50;97.30;;;;;;5032386;28;20024;-57
2022/11/23 08:40:47;;;;;;;;;;;4.60;97.90;;;;;;5031439;28;19936;-60
2022/11/23 08:43:12;;;;;;;;;;;4.70;98.00;;;;;;5032508;28;20004;-58
2022/11/23 08:45:38;;;;;;;;;;;4.80;98.30;;;;;;5032230;28;19936;-59
2022/11/23 08:48:04;;;;;;;;;;;4.90;98.40;;;;;;5032382;28;19913;-58
2022/11/23 08:50:30;;;;;;;;;;;5.00;98.30;;;;;;5032112;28;19909;-60
2022/11/23 08:52:56;;;;;;;;;;;5.10;98.80;;;;;;5032447;28;20453;-60
2022/11/23 08:55:22;;;;;;;;;;;5.20;98.50;;;;;;5032232;28;19909;-60
2022/11/23 08:57:48;;;;;;;;;;;5.40;98.50;;;;;;5032301;28;19915;-60
2022/11/23 09:00:16;;;;;;;;;;;5.50;98.20;;;;;;5030378;28;19999;-59
2022/11/23 09:02:42;;;;;;;;;;;5.70;98.20;;;;;;5032109;28;19909;-59
2022/11/23 09:05:08;;;;;;;;;;;5.80;98.40;;;;;;5030824;28;19917;-60
2022/11/23 09:07:36;;;;;;;;;;;5.90;98.00;;;;;;5030900;28;19932;-59
2022/11/23 09:10:02;;;;;;;;;;;6.00;98.00;;;;;;5031930;28;19916;-59
2022/11/23 09:12:28;;;;;;;;;;;6.10;98.20;;;;;;5030649;28;19909;-60
2022/11/23 09:14:56;;;;;;;;;;;6.20;98.10;;;;;;5031683;28;19910;-60
2022/11/23 09:17:22;;;;;;;;;;;6.30;98.10;;;;;;5032098;28;19945;-60
2022/11/23 09:19:49;;;;;;;;;;;6.40;98.30;;;;;;5030500;28;20003;-57
2022/11/23 09:22:17;;;;;;;;;;;6.50;98.10;;;;;;5031930;28;19913;-60
2022/11/23 09:24:43;;;;;;;;;;;6.60;95.60;;;;;;5032135;28;19913;-60
2022/11/23 09:27:08;;;;;;;;;;;6.70;96.30;;;;;;5031894;28;20406;-59
2022/11/23 09:29:34;;;;;;;;;;;6.80;96.30;;;;;;5031665;28;19909;-57
2022/11/23 09:32:03;;;;;;;;;;;6.80;96.10;;;;;;5031920;28;20009;-58
2022/11/23 09:37:32;;;;;;;;;;;6.90;95.70;;;;;;5029723;28;20047;-60
2022/11/23 09:39:57;;;;;;;;;;;7.00;95.30;;;;;;5031592;28;19992;-59
2022/11/23 09:42:23;;;;;;;;;;;7.00;95.00;;;;;;5031787;28;20026;-60
2022/11/23 09:45:01;;;;;;;;;;;7.10;94.40;;;;;;5031777;28;19916;-58
2022/11/23 09:47:39;;;;;;;;;;;7.20;94.50;;;;;;5031627;28;20018;-60
2022/11/23 09:50:05;;;;;;;;;;;7.30;94.40;;;;;;5031349;28;19963;-58
2022/11/23 09:52:31;;;;;;;;;;;7.40;94.60;;;;;;5032147;28;19996;-60
2022/11/23 09:54:59;;;;;;;;;;;7.50;93.70;;;;;;5035589;28;19916;-61
2022/11/23 09:57:28;;;;;;;;;;;7.50;93.90;;;;;;5035489;28;19948;-59
2022/11/23 09:59:58;;;;;;;;;;;7.70;93.80;;;;;;5035093;28;19920;-57
2022/11/23 10:02:25;;;;;;;;;;;7.80;94.00;;;;;;5034134;28;19913;-60
2022/11/23 10:04:54;;;;;;;;;;;7.90;93.90;;;;;;5035017;28;19913;-59
2022/11/23 10:07:21;;;;;;;;;;;7.90;93.70;;;;;;5035537;28;19909;-60
2022/11/23 10:10:05;;;;;;;;;;;8.10;93.80;;;;;;5035078;28;19916;-59
2022/11/23 10:12:49;;;;;;;;;;;8.20;92.70;;;;;;5035148;28;19913;-60
2022/11/23 10:15:32;;;;;;;;;;;8.40;91.40;;;;;;5034984;28;19916;-60
2022/11/23 10:18:04;;;;;;;;;;;8.50;91.10;;;;;;5034344;28;20393;-60
2022/11/23 10:20:35;;;;;;;;;;;8.70;92.10;;;;;;5034824;28;20301;-61
2022/11/23 10:23:02;;;;;;;;;;;8.70;91.70;;;;;;5035042;28;19913;-60
2022/11/23 10:25:48;;;;;;;;;;;8.90;91.70;;;;;;5034914;28;19916;-61
2022/11/23 10:28:15;;;;;;;;;;;9.00;89.30;;;;;;5034381;28;19915;-61
2022/11/23 10:30:41;;;;;;;;;;;9.10;90.80;;;;;;5034887;28;19921;-60
2022/11/23 10:33:22;;;;;;;;;;;9.20;89.60;;;;;;5034832;28;20003;-61
2022/11/23 10:35:48;;;;;;;;;;;9.20;87.10;;;;;;5034739;28;20378;-60
2022/11/23 10:38:15;;;;;;;;;;;9.20;89.80;;;;;;5033164;28;19927;-60
2022/11/23 10:40:51;;;;;;;;;;;9.40;88.60;;;;;;5034502;28;20030;-61
2022/11/23 10:43:20;;;;;;;;;;;9.40;89.20;;;;;;5034729;28;19909;-59
2022/11/23 10:45:45;;;;;;;;;;;9.50;87.70;;;;;;5034543;28;19916;-58
2022/11/23 10:48:11;;;;;;;;;;;9.50;86.70;;;;;;5034404;28;19913;-61
2022/11/23 10:50:39;;;;;;;;;;;9.50;87.90;;;;;;5034286;28;19970;-60
2022/11/23 10:53:05;;;;;;;;;;;9.60;87.60;;;;;;5034428;28;19913;-58
2022/11/23 10:55:32;;;;;;;;;;;9.70;86.60;;;;;;5033098;28;19936;-59
2022/11/23 10:57:58;;;;;;;;;;;9.80;82.70;;;;;;5033736;28;19916;-60
2022/11/23 11:00:27;;;;;;;;;;;9.90;82.80;;;;;;5033784;28;19917;-61
2022/11/23 11:02:54;;;;;;;;;;;9.90;84.20;;;;;;5033891;28;19909;-59
2022/11/23 11:05:33;;;;;;;;;;;10.00;83.50;;;;;;5033996;28;19909;-61
2022/11/23 11:08:12;;;;;;;;;;;10.20;84.00;;;;;;5034216;28;19913;-60
2022/11/23 11:10:38;;;;;;;;;;;10.20;81.50;;;;;;5034056;28;20350;-60
2022/11/23 11:13:39;;;;;;;;;;;10.30;80.40;;;;;;5041327;28;19952;-60
2022/11/23 11:16:16;;;;;;;;;;;10.30;80.70;;;;;;5030910;28;19936;-62
2022/11/23 11:18:42;;;;;;;;;;;10.40;78.40;;;;;;5030937;28;19916;-59
2022/11/23 11:21:16;;;;;;;;;;;10.40;79.60;;;;;;5031301;28;20342;-61
2022/11/23 11:23:46;;;;;;;;;;;10.50;76.80;;;;;;5031160;28;20015;-61
2022/11/23 11:26:19;;;;;;;;;;;10.60;76.00;;;;;;5039478;28;20003;-61
2022/11/23 11:28:50;;;;;;;;;;;10.60;76.60;;;;;;5039974;28;19975;-60
2022/11/23 11:31:37;;;;;;;;;;;10.60;77.20;;;;;;5039519;28;19913;-60
2022/11/23 11:34:24;;;;;;;;;;;10.60;75.60;;;;;;5042134;28;20360;-61
2022/11/23 11:37:08;;;;;;;;;;;10.60;73.80;;;;;;5044214;28;19913;-61
2022/11/23 11:39:38;;;;;;;;;;;10.70;77.10;;;;;;5044438;28;20369;-61
2022/11/23 11:42:06;;;;;;;;;;;10.80;75.70;;;;;;5053194;28;19939;-61
2022/11/23 11:44:34;;;;;;;;;;;10.90;76.20;;;;;;5038895;28;19916;-60
2022/11/23 11:47:03;;;;;;;;;;;11.00;76.60;;;;;;5049584;28;19944;-61
2022/11/23 11:49:31;;;;;;;;;;;11.00;73.70;;;;;;5033140;28;19921;-61
2022/11/23 11:52:17;;;;;;;;;;;11.00;75.70;;;;;;5033393;28;20054;-61
2022/11/23 11:54:48;;;;;;;;;;;10.90;76.50;;;;;;5044089;28;19924;-61
2022/11/23 11:57:25;;;;;;;;;;;11.10;74.10;;;;;;5042486;28;19956;-61
2022/11/23 11:59:57;;;;;;;;;;;12.00;75.60;;;;;;5051154;28;19923;-62
2022/11/23 12:02:28;;;;;;;;;;;13.20;66.90;;;;;;5051546;28;19916;-62
2022/11/23 12:04:57;;;;;;;;;;;;;;;;;;5038265;28;19913;-62
2022/11/23 12:07:43;;;;;;;;;;;13.20;68.70;;;;;;5034477;28;20286;-62
2022/11/23 12:10:16;;;;;;;;;;;16.40;64.50;;;;;;5044679;28;19913;-62
2022/11/23 12:12:41;;;;;;;;;;;18.80;53.10;;;;;;5032834;28;20449;-62
2022/11/23 12:15:30;;;;;;;;;;;18.00;54.80;;;;;;5034752;28;20016;-62
2022/11/23 12:18:12;;;;;;;;;;;18.30;54.30;;;;;;5018282;28;20366;-62
2022/11/23 12:20:47;;;;;;;;;;;20.10;45.30;;;;;;5032765;28;19966;-63
2022/11/23 12:23:13;;;;;;;;;;;;;;;;;;5052661;28;20396;-63
2022/11/23 12:25:39;;;;;;;;;;;;;;;;;;5051264;28;19916;-63
2022/11/23 12:28:05;;;;;;;;;;;;;;;;;;5056549;28;19912;-63
2022/11/23 12:33:39;;;;;;;;;;;;;;;;;;5030101;28;19955;-63
2022/11/23 12:36:08;;;;;;;;;;;;;;;;;;5033252;28;20007;-63
2022/11/23 12:38:46;;;;;;;;;;;22.20;36.90;;;;;;5033078;28;20008;-63
2022/11/23 12:41:18;;;;;;;;;;;19.40;46.00;;;;;;5051674;28;20003;-63
2022/11/23 12:43:52;;;;;;;;;;;17.70;49.10;;;;;;5037231;28;20016;-63
2022/11/23 12:46:36;;;;;;;;;;;16.60;52.40;;;;;;5032267;28;20358;-63
2022/11/23 12:49:04;;;;;;;;;;;15.80;54.50;;;;;;5051140;28;19913;-63
2022/11/23 12:51:30;;;;;;;;;;;;;;;;;;5048611;28;19912;-63
2022/11/23 12:53:56;;;;;;;;;;;;;;;;;;5052192;28;19915;-63
2022/11/23 12:56:28;;;;;;;;;;;15.30;52.60;;;;;;5051783;28;19913;-63
2022/11/23 12:59:00;;;;;;;;;;;18.20;51.60;;;;;;5035026;28;19919;-63
2022/11/23 13:01:35;;;;;;;;;;;18.00;51.10;;;;;;5032020;28;19964;-63
2022/11/23 13:04:20;;;;;;;;;;;17.80;50.50;;;;;;5030875;28;19971;-63
2022/11/23 13:06:45;;;;;;;;;;;17.30;51.50;;;;;;5031452;28;20328;-63
2022/11/23 13:09:29;;;;;;;;;;;17.00;52.10;;;;;;5031774;28;19917;-63
2022/11/23 13:12:13;;;;;;;;;;;17.20;53.20;;;;;;5033068;28;20285;-63
2022/11/23 13:14:50;;;;;;;;;;;17.90;50.10;;;;;;5031986;28;19917;-63
2022/11/23 13:17:31;;;;;;;;;;;17.40;51.50;;;;;;5044657;28;19909;-63
2022/11/23 13:19:57;;;;;;;;;;;;;;;;;;5044822;28;20385;-63
2022/11/23 13:22:24;;;;;;;;;;;17.30;50.50;;;;;;5041059;28;19917;-63
2022/11/23 13:24:59;;;;;;;;;;;17.60;50.40;;;;;;5031840;28;19999;-63
2022/11/23 13:27:27;;;;;;;;;;;17.10;51.00;;;;;;5034087;28;19920;-63
2022/11/23 13:29:59;;;;;;;;;;;16.70;51.70;;;;;;5034203;28;20286;-63
2022/11/23 13:32:37;;;;;;;;;;;16.30;51.50;;;;;;5047687;28;19913;-63
2022/11/23 13:35:15;;;;;;;;;;;15.80;53.80;;;;;;5055653;28;19913;-63
2022/11/23 13:37:50;;;;;;;;;;;16.10;55.60;;;;;;5044208;28;19921;-63
2022/11/23 13:40:35;;;;;;;;;;;17.10;54.00;;;;;;5055488;28;20427;-63
2022/11/23 13:43:01;;;;;;;;;;;;;;;;;;5038729;28;20290;-63
2022/11/23 13:45:29;;;;;;;;;;;17.60;50.90;;;;;;5036670;28;19920;-63
2022/11/23 13:48:15;;;;;;;;;;;17.50;49.90;;;;;;5035761;28;19971;-63
2022/11/23 13:50:58;;;;;;;;;;;16.70;51.40;;;;;;5047098;28;19962;-63
2022/11/23 13:53:23;;;;;;;;;;;16.40;50.50;;;;;;5035767;28;19920;-63
2022/11/23 13:55:51;;;;;;;;;;;16.50;49.40;;;;;;5035378;28;19909;-63
2022/11/23 13:58:22;;;;;;;;;;;16.10;51.00;;;;;;5035278;28;20004;-63
2022/11/23 14:00:53;;;;;;;;;;;15.50;53.00;;;;;;5045877;28;19917;-63
2022/11/23 14:03:41;;;;;;;;;;;15.00;52.80;;;;;;5036540;28;19914;-63
2022/11/23 14:06:24;;;;;;;;;;;14.30;54.50;;;;;;5018920;28;20392;-63
2022/11/23 14:09:11;;;;;;;;;;;13.90;56.90;;;;;;5036215;28;20393;-63
2022/11/23 14:12:06;;;;;;;;;;;13.80;60.20;;;;;;5042178;28;19940;-63
2022/11/23 14:14:45;;;;;;;;;;;13.80;61.80;;;;;;5048172;28;20435;-63
2022/11/23 14:17:14;;;;;;;;;;;13.80;61.00;;;;;;5045647;28;19920;-63
2022/11/23 14:20:02;;;;;;;;;;;13.60;62.80;;;;;;5054730;28;19915;-62
2022/11/23 14:22:47;;;;;;;;;;;13.40;63.10;;;;;;5034847;28;19920;-62
2022/11/23 14:25:31;;;;;;;;;;;13.20;63.20;;;;;;5034503;28;19920;-62
2022/11/23 14:31:26;;;;;;;;;;;13.10;64.00;;;;;;5035102;28;19936;-62
2022/11/23 14:34:06;;;;;;;;;;;13.00;65.70;;;;;;5041031;28;19919;-62
2022/11/23 14:36:45;;;;;;;;;;;12.90;64.90;;;;;;5034827;28;20274;-62
2022/11/23 14:39:32;;;;;;;;;;;12.80;65.70;;;;;;5051073;28;19947;-62
2022/11/23 14:42:02;;;;;;;;;;;12.70;64.50;;;;;;5041373;28;19917;-62
2022/11/23 14:44:29;;;;;;;;;;;12.60;64.90;;;;;;5038899;28;19913;-63
2022/11/23 14:47:06;;;;;;;;;;;12.40;66.10;;;;;;5041020;28;19913;-65
2022/11/23 14:49:32;;;;;;;;;;;12.30;66.60;;;;;;5044741;28;20000;-65
2022/11/23 14:52:03;;;;;;;;;;;12.30;70.50;;;;;;5041096;28;20000;-65
2022/11/23 14:54:29;;;;;;;;;;;12.20;68.90;;;;;;5046001;28;19921;-65
2022/11/23 14:57:02;;;;;;;;;;;12.20;69.40;;;;;;5037847;28;20336;-65
2022/11/23 14:59:30;;;;;;;;;;;12.10;70.00;;;;;;5049796;28;20000;-65
2022/11/23 15:02:00;;;;;;;;;;;12.10;71.00;;;;;;5042375;28;20297;-65
2022/11/23 15:04:27;;;;;;;;;;;12.10;70.80;;;;;;5048084;28;19967;-65